sensor_id;sensor_type;location;lat;lon;timestamp;P1;durP1;ratioP1;P2;durP2;ratioP2
18114;SDS011;9184;54.390;18.620;2022-12-07T00:00:30;43.63;;;24.70;;
18114;SDS011;9184;54.390;18.620;2022-12-07T00:01:06;42.67;;;25.20;;
18114;SDS011;9184;54.390;18.620;2022-12-07T00:01:37;42.93;;;25.10;;
18114;SDS011;9184;54.390;18.620;2022-12-07T00:02:09;40.23;;;24.00;;
18114;SDS011;9184;54.390;18.620;2022-12-07T00:02:39;39.70;;;23.80;;
18114;SDS011;9184;54.390;18.620;2022-12-07T00:03:10;43.70;;;26.70;;
18114;SDS011;9184;54.390;18.620;2022-12-07T00:03:42;41.47;;;26.07;;
18114;SDS011;9184;54.390;18.620;2022-12-07T00:04:13;36.57;;;24.37;;
18114;SDS011;9184;54.390;18.620;2022-12-07T00:04:45;35.97;;;23.60;;
18114;SDS011;9184;54.390;18.620;2022-12-07T00:05:16;41.33;;;24.57;;
18114;SDS011;9184;54.390;18.620;2022-12-07T00:05:46;37.70;;;22.47;;
18114;SDS011;9184;54.390;18.620;2022-12-07T00:06:18;36.70;;;22.73;;
18114;SDS011;9184;54.390;18.620;2022-12-07T00:06:50;36.07;;;22.33;;
18114;SDS011;9184;54.390;18.620;2022-12-07T00:07:22;42.83;;;25.40;;
18114;SDS011;9184;54.390;18.620;2022-12-07T00:07:53;41.60;;;26.13;;
18114;SDS011;9184;54.390;18.620;2022-12-07T00:08:25;49.10;;;30.63;;
18114;SDS011;9184;54.390;18.620;2022-12-07T00:08:55;47.93;;;29.57;;
18114;SDS011;9184;54.390;18.620;2022-12-07T00:09:27;46.73;;;27.30;;
18114;SDS011;9184;54.390;18.620;2022-12-07T00:09:57;41.53;;;25.67;;
18114;SDS011;9184;54.390;18.620;2022-12-07T00:10:27;38.10;;;25.13;;
18114;SDS011;9184;54.390;18.620;2022-12-07T00:11:00;38.73;;;24.63;;
18114;SDS011;9184;54.390;18.620;2022-12-07T00:11:31;42.77;;;25.67;;
18114;SDS011;9184;54.390;18.620;2022-12-07T00:12:01;45.20;;;26.60;;
18114;SDS011;9184;54.390;18.620;2022-12-07T00:12:33;40.57;;;25.73;;
18114;SDS011;9184;54.390;18.620;2022-12-07T00:13:04;36.20;;;23.57;;
18114;SDS011;9184;54.390;18.620;2022-12-07T00:13:35;43.07;;;25.77;;
18114;SDS011;9184;54.390;18.620;2022-12-07T00:14:07;39.90;;;24.63;;
18114;SDS011;9184;54.390;18.620;2022-12-07T00:14:39;38.17;;;23.43;;
18114;SDS011;9184;54.390;18.620;2022-12-07T00:15:09;34.13;;;23.07;;
18114;SDS011;9184;54.390;18.620;2022-12-07T00:15:40;34.63;;;23.33;;
18114;SDS011;9184;54.390;18.620;2022-12-07T00:16:12;38.07;;;22.93;;
18114;SDS011;9184;54.390;18.620;2022-12-07T00:16:43;38.87;;;24.63;;
18114;SDS011;9184;54.390;18.620;2022-12-07T00:17:14;38.33;;;23.10;;
18114;SDS011;9184;54.390;18.620;2022-12-07T00:17:45;37.23;;;23.67;;
18114;SDS011;9184;54.390;18.620;2022-12-07T00:18:15;37.70;;;23.80;;
18114;SDS011;9184;54.390;18.620;2022-12-07T00:18:46;33.67;;;22.00;;
18114;SDS011;9184;54.390;18.620;2022-12-07T00:19:16;35.13;;;22.33;;
18114;SDS011;9184;54.390;18.620;2022-12-07T00:19:48;35.03;;;21.57;;
18114;SDS011;9184;54.390;18.620;2022-12-07T00:20:18;35.23;;;21.93;;
18114;SDS011;9184;54.390;18.620;2022-12-07T00:20:49;35.57;;;22.83;;
18114;SDS011;9184;54.390;18.620;2022-12-07T00:21:20;34.97;;;22.00;;
18114;SDS011;9184;54.390;18.620;2022-12-07T00:21:51;41.17;;;22.00;;
18114;SDS011;9184;54.390;18.620;2022-12-07T00:22:22;39.30;;;23.47;;
18114;SDS011;9184;54.390;18.620;2022-12-07T00:22:53;35.43;;;22.40;;
18114;SDS011;9184;54.390;18.620;2022-12-07T00:23:25;33.93;;;22.33;;
18114;SDS011;9184;54.390;18.620;2022-12-07T00:23:56;39.13;;;21.70;;
18114;SDS011;9184;54.390;18.620;2022-12-07T00:24:27;35.50;;;22.93;;
18114;SDS011;9184;54.390;18.620;2022-12-07T00:24:58;37.17;;;23.57;;
18114;SDS011;9184;54.390;18.620;2022-12-07T00:25:29;39.87;;;24.57;;
18114;SDS011;9184;54.390;18.620;2022-12-07T00:26:05;37.40;;;23.07;;
18114;SDS011;9184;54.390;18.620;2022-12-07T00:26:36;34.80;;;23.07;;
18114;SDS011;9184;54.390;18.620;2022-12-07T00:27:06;36.13;;;22.27;;
18114;SDS011;9184;54.390;18.620;2022-12-07T00:27:38;37.90;;;23.17;;
18114;SDS011;9184;54.390;18.620;2022-12-07T00:28:08;39.33;;;24.87;;
18114;SDS011;9184;54.390;18.620;2022-12-07T00:28:41;36.63;;;23.37;;
18114;SDS011;9184;54.390;18.620;2022-12-07T00:29:13;37.30;;;23.07;;
18114;SDS011;9184;54.390;18.620;2022-12-07T00:29:47;37.03;;;24.43;;
18114;SDS011;9184;54.390;18.620;2022-12-07T00:30:18;33.07;;;21.63;;
18114;SDS011;9184;54.390;18.620;2022-12-07T00:30:49;38.53;;;22.53;;
18114;SDS011;9184;54.390;18.620;2022-12-07T00:31:20;33.73;;;21.40;;
18114;SDS011;9184;54.390;18.620;2022-12-07T00:31:51;37.57;;;24.07;;
18114;SDS011;9184;54.390;18.620;2022-12-07T00:32:23;39.50;;;23.63;;
18114;SDS011;9184;54.390;18.620;2022-12-07T00:32:53;35.23;;;22.77;;
18114;SDS011;9184;54.390;18.620;2022-12-07T00:33:23;36.80;;;24.07;;
18114;SDS011;9184;54.390;18.620;2022-12-07T00:33:54;37.80;;;25.47;;
18114;SDS011;9184;54.390;18.620;2022-12-07T00:34:25;46.43;;;27.77;;
18114;SDS011;9184;54.390;18.620;2022-12-07T00:34:56;40.30;;;26.60;;
18114;SDS011;9184;54.390;18.620;2022-12-07T00:35:26;39.23;;;25.93;;
18114;SDS011;9184;54.390;18.620;2022-12-07T00:35:58;37.97;;;24.80;;
18114;SDS011;9184;54.390;18.620;2022-12-07T00:36:29;41.50;;;26.63;;
18114;SDS011;9184;54.390;18.620;2022-12-07T00:36:59;41.43;;;27.43;;
18114;SDS011;9184;54.390;18.620;2022-12-07T00:37:30;37.77;;;25.13;;
18114;SDS011;9184;54.390;18.620;2022-12-07T00:38:01;38.80;;;24.30;;
18114;SDS011;9184;54.390;18.620;2022-12-07T00:38:33;35.43;;;23.13;;
18114;SDS011;9184;54.390;18.620;2022-12-07T00:39:05;35.80;;;23.33;;
18114;SDS011;9184;54.390;18.620;2022-12-07T00:39:36;36.57;;;22.40;;
18114;SDS011;9184;54.390;18.620;2022-12-07T00:40:06;37.37;;;23.57;;
18114;SDS011;9184;54.390;18.620;2022-12-07T00:40:38;39.53;;;23.30;;
18114;SDS011;9184;54.390;18.620;2022-12-07T00:41:09;36.10;;;22.27;;
18114;SDS011;9184;54.390;18.620;2022-12-07T00:41:40;32.50;;;20.30;;
18114;SDS011;9184;54.390;18.620;2022-12-07T00:42:12;33.87;;;21.10;;
18114;SDS011;9184;54.390;18.620;2022-12-07T00:42:42;34.83;;;22.60;;
18114;SDS011;9184;54.390;18.620;2022-12-07T00:43:13;31.97;;;20.20;;
18114;SDS011;9184;54.390;18.620;2022-12-07T00:43:44;29.13;;;20.67;;
18114;SDS011;9184;54.390;18.620;2022-12-07T00:44:15;32.53;;;21.50;;
18114;SDS011;9184;54.390;18.620;2022-12-07T00:44:46;36.00;;;20.77;;
18114;SDS011;9184;54.390;18.620;2022-12-07T00:45:16;33.63;;;21.43;;
18114;SDS011;9184;54.390;18.620;2022-12-07T00:45:48;35.07;;;21.73;;
18114;SDS011;9184;54.390;18.620;2022-12-07T00:46:19;33.57;;;20.83;;
18114;SDS011;9184;54.390;18.620;2022-12-07T00:46:50;36.33;;;21.73;;
18114;SDS011;9184;54.390;18.620;2022-12-07T00:47:21;30.17;;;19.93;;
18114;SDS011;9184;54.390;18.620;2022-12-07T00:47:52;33.80;;;20.43;;
18114;SDS011;9184;54.390;18.620;2022-12-07T00:48:23;30.33;;;20.27;;
18114;SDS011;9184;54.390;18.620;2022-12-07T00:48:53;31.43;;;20.07;;
18114;SDS011;9184;54.390;18.620;2022-12-07T00:49:25;32.70;;;19.60;;
18114;SDS011;9184;54.390;18.620;2022-12-07T00:49:55;30.23;;;20.07;;
18114;SDS011;9184;54.390;18.620;2022-12-07T00:50:26;30.87;;;19.53;;
18114;SDS011;9184;54.390;18.620;2022-12-07T00:50:57;31.30;;;20.90;;
18114;SDS011;9184;54.390;18.620;2022-12-07T00:51:28;31.70;;;20.13;;
18114;SDS011;9184;54.390;18.620;2022-12-07T00:51:59;33.53;;;20.87;;
18114;SDS011;9184;54.390;18.620;2022-12-07T00:52:30;30.67;;;20.00;;
18114;SDS011;9184;54.390;18.620;2022-12-07T00:53:00;35.80;;;19.53;;
18114;SDS011;9184;54.390;18.620;2022-12-07T00:53:34;29.30;;;19.93;;
18114;SDS011;9184;54.390;18.620;2022-12-07T00:54:05;30.00;;;20.07;;
18114;SDS011;9184;54.390;18.620;2022-12-07T00:54:36;31.73;;;20.23;;
18114;SDS011;9184;54.390;18.620;2022-12-07T00:55:07;33.97;;;19.93;;
18114;SDS011;9184;54.390;18.620;2022-12-07T00:55:38;29.87;;;19.93;;
18114;SDS011;9184;54.390;18.620;2022-12-07T00:56:09;30.20;;;19.23;;
18114;SDS011;9184;54.390;18.620;2022-12-07T00:56:42;31.33;;;19.37;;
18114;SDS011;9184;54.390;18.620;2022-12-07T00:57:12;31.20;;;19.50;;
18114;SDS011;9184;54.390;18.620;2022-12-07T00:57:43;28.10;;;17.93;;
18114;SDS011;9184;54.390;18.620;2022-12-07T00:58:15;29.87;;;17.97;;
18114;SDS011;9184;54.390;18.620;2022-12-07T00:58:49;31.40;;;19.67;;
18114;SDS011;9184;54.390;18.620;2022-12-07T00:59:19;33.37;;;20.60;;
18114;SDS011;9184;54.390;18.620;2022-12-07T00:59:51;31.90;;;19.80;;
18114;SDS011;9184;54.390;18.620;2022-12-07T01:00:25;28.53;;;18.43;;
18114;SDS011;9184;54.390;18.620;2022-12-07T01:00:55;33.73;;;20.43;;
18114;SDS011;9184;54.390;18.620;2022-12-07T01:01:31;30.13;;;19.70;;
18114;SDS011;9184;54.390;18.620;2022-12-07T01:02:02;31.13;;;18.93;;
18114;SDS011;9184;54.390;18.620;2022-12-07T01:02:32;31.00;;;18.03;;
18114;SDS011;9184;54.390;18.620;2022-12-07T01:03:04;32.70;;;19.73;;
18114;SDS011;9184;54.390;18.620;2022-12-07T01:03:34;32.77;;;19.37;;
18114;SDS011;9184;54.390;18.620;2022-12-07T01:04:05;33.63;;;20.77;;
18114;SDS011;9184;54.390;18.620;2022-12-07T01:04:36;32.20;;;19.17;;
18114;SDS011;9184;54.390;18.620;2022-12-07T01:05:07;30.43;;;19.37;;
18114;SDS011;9184;54.390;18.620;2022-12-07T01:05:38;29.13;;;18.77;;
18114;SDS011;9184;54.390;18.620;2022-12-07T01:06:09;35.37;;;19.10;;
18114;SDS011;9184;54.390;18.620;2022-12-07T01:06:43;31.00;;;18.83;;
18114;SDS011;9184;54.390;18.620;2022-12-07T01:07:15;27.57;;;18.03;;
18114;SDS011;9184;54.390;18.620;2022-12-07T01:07:45;29.70;;;18.30;;
18114;SDS011;9184;54.390;18.620;2022-12-07T01:08:16;29.70;;;18.87;;
18114;SDS011;9184;54.390;18.620;2022-12-07T01:08:48;31.50;;;19.10;;
18114;SDS011;9184;54.390;18.620;2022-12-07T01:09:20;31.73;;;20.03;;
18114;SDS011;9184;54.390;18.620;2022-12-07T01:09:50;31.47;;;19.17;;
18114;SDS011;9184;54.390;18.620;2022-12-07T01:10:20;31.47;;;18.93;;
18114;SDS011;9184;54.390;18.620;2022-12-07T01:10:57;32.33;;;20.47;;
18114;SDS011;9184;54.390;18.620;2022-12-07T01:11:29;30.83;;;19.30;;
18114;SDS011;9184;54.390;18.620;2022-12-07T01:12:00;33.17;;;19.03;;
18114;SDS011;9184;54.390;18.620;2022-12-07T01:12:30;31.17;;;19.53;;
18114;SDS011;9184;54.390;18.620;2022-12-07T01:13:02;27.53;;;18.83;;
18114;SDS011;9184;54.390;18.620;2022-12-07T01:13:33;31.93;;;19.00;;
18114;SDS011;9184;54.390;18.620;2022-12-07T01:14:03;30.77;;;19.23;;
18114;SDS011;9184;54.390;18.620;2022-12-07T01:14:35;29.07;;;18.37;;
18114;SDS011;9184;54.390;18.620;2022-12-07T01:15:06;30.03;;;18.80;;
18114;SDS011;9184;54.390;18.620;2022-12-07T01:15:38;29.97;;;18.20;;
18114;SDS011;9184;54.390;18.620;2022-12-07T01:16:10;35.43;;;19.43;;
18114;SDS011;9184;54.390;18.620;2022-12-07T01:16:41;28.43;;;18.63;;
18114;SDS011;9184;54.390;18.620;2022-12-07T01:17:12;29.33;;;17.90;;
18114;SDS011;9184;54.390;18.620;2022-12-07T01:17:43;28.83;;;17.07;;
18114;SDS011;9184;54.390;18.620;2022-12-07T01:18:14;30.37;;;19.20;;
18114;SDS011;9184;54.390;18.620;2022-12-07T01:18:46;32.33;;;19.10;;
18114;SDS011;9184;54.390;18.620;2022-12-07T01:19:17;33.27;;;19.37;;
18114;SDS011;9184;54.390;18.620;2022-12-07T01:19:48;31.27;;;18.70;;
18114;SDS011;9184;54.390;18.620;2022-12-07T01:20:19;30.27;;;19.20;;
18114;SDS011;9184;54.390;18.620;2022-12-07T01:20:56;31.10;;;18.67;;
18114;SDS011;9184;54.390;18.620;2022-12-07T01:21:28;33.77;;;19.90;;
18114;SDS011;9184;54.390;18.620;2022-12-07T01:22:00;32.70;;;19.00;;
18114;SDS011;9184;54.390;18.620;2022-12-07T01:22:35;35.30;;;19.40;;
18114;SDS011;9184;54.390;18.620;2022-12-07T01:23:06;31.13;;;18.30;;
18114;SDS011;9184;54.390;18.620;2022-12-07T01:23:37;33.03;;;19.23;;
18114;SDS011;9184;54.390;18.620;2022-12-07T01:24:10;33.60;;;19.40;;
18114;SDS011;9184;54.390;18.620;2022-12-07T01:24:41;32.37;;;18.73;;
18114;SDS011;9184;54.390;18.620;2022-12-07T01:25:12;30.40;;;18.67;;
18114;SDS011;9184;54.390;18.620;2022-12-07T01:25:43;30.10;;;18.50;;
18114;SDS011;9184;54.390;18.620;2022-12-07T01:26:16;33.13;;;19.57;;
18114;SDS011;9184;54.390;18.620;2022-12-07T01:26:48;29.80;;;18.37;;
18114;SDS011;9184;54.390;18.620;2022-12-07T01:27:20;32.20;;;19.23;;
18114;SDS011;9184;54.390;18.620;2022-12-07T01:27:50;31.53;;;18.73;;
18114;SDS011;9184;54.390;18.620;2022-12-07T01:28:20;31.13;;;18.57;;
18114;SDS011;9184;54.390;18.620;2022-12-07T01:28:51;32.93;;;19.77;;
18114;SDS011;9184;54.390;18.620;2022-12-07T01:29:24;31.60;;;18.23;;
18114;SDS011;9184;54.390;18.620;2022-12-07T01:29:55;31.27;;;19.03;;
18114;SDS011;9184;54.390;18.620;2022-12-07T01:30:25;34.57;;;19.83;;
18114;SDS011;9184;54.390;18.620;2022-12-07T01:30:57;32.20;;;18.97;;
18114;SDS011;9184;54.390;18.620;2022-12-07T01:31:28;34.43;;;18.70;;
18114;SDS011;9184;54.390;18.620;2022-12-07T01:31:58;33.63;;;19.37;;
18114;SDS011;9184;54.390;18.620;2022-12-07T01:32:30;32.73;;;20.07;;
18114;SDS011;9184;54.390;18.620;2022-12-07T01:33:00;34.33;;;19.57;;
18114;SDS011;9184;54.390;18.620;2022-12-07T01:33:32;33.20;;;19.67;;
18114;SDS011;9184;54.390;18.620;2022-12-07T01:34:04;30.53;;;18.17;;
18114;SDS011;9184;54.390;18.620;2022-12-07T01:34:34;32.23;;;18.37;;
18114;SDS011;9184;54.390;18.620;2022-12-07T01:35:05;31.23;;;19.00;;
18114;SDS011;9184;54.390;18.620;2022-12-07T01:35:36;33.00;;;18.33;;
18114;SDS011;9184;54.390;18.620;2022-12-07T01:36:07;31.53;;;18.93;;
18114;SDS011;9184;54.390;18.620;2022-12-07T01:36:38;31.50;;;19.87;;
18114;SDS011;9184;54.390;18.620;2022-12-07T01:37:09;29.77;;;18.33;;
18114;SDS011;9184;54.390;18.620;2022-12-07T01:37:40;33.40;;;18.30;;
18114;SDS011;9184;54.390;18.620;2022-12-07T01:38:10;31.53;;;19.53;;
18114;SDS011;9184;54.390;18.620;2022-12-07T01:38:42;29.23;;;18.27;;
18114;SDS011;9184;54.390;18.620;2022-12-07T01:39:14;36.17;;;19.27;;
18114;SDS011;9184;54.390;18.620;2022-12-07T01:39:47;34.43;;;19.67;;
18114;SDS011;9184;54.390;18.620;2022-12-07T01:40:18;28.73;;;18.23;;
18114;SDS011;9184;54.390;18.620;2022-12-07T01:40:53;29.73;;;18.57;;
18114;SDS011;9184;54.390;18.620;2022-12-07T01:41:25;32.93;;;18.57;;
18114;SDS011;9184;54.390;18.620;2022-12-07T01:41:56;32.57;;;18.50;;
18114;SDS011;9184;54.390;18.620;2022-12-07T01:42:26;30.30;;;18.37;;
18114;SDS011;9184;54.390;18.620;2022-12-07T01:42:59;29.17;;;18.63;;
18114;SDS011;9184;54.390;18.620;2022-12-07T01:43:30;28.93;;;18.17;;
18114;SDS011;9184;54.390;18.620;2022-12-07T01:44:09;28.67;;;18.70;;
18114;SDS011;9184;54.390;18.620;2022-12-07T01:45:34;27.57;;;16.57;;
18114;SDS011;9184;54.390;18.620;2022-12-07T01:46:07;32.10;;;19.43;;
18114;SDS011;9184;54.390;18.620;2022-12-07T01:46:37;29.57;;;18.43;;
18114;SDS011;9184;54.390;18.620;2022-12-07T01:47:08;28.30;;;17.70;;
18114;SDS011;9184;54.390;18.620;2022-12-07T01:47:39;31.13;;;18.57;;
18114;SDS011;9184;54.390;18.620;2022-12-07T01:48:11;31.03;;;18.17;;
18114;SDS011;9184;54.390;18.620;2022-12-07T01:48:42;31.17;;;19.00;;
18114;SDS011;9184;54.390;18.620;2022-12-07T01:49:18;29.13;;;18.67;;
18114;SDS011;9184;54.390;18.620;2022-12-07T01:49:50;30.73;;;18.10;;
18114;SDS011;9184;54.390;18.620;2022-12-07T01:50:20;30.87;;;17.90;;
18114;SDS011;9184;54.390;18.620;2022-12-07T01:50:52;32.30;;;19.87;;
18114;SDS011;9184;54.390;18.620;2022-12-07T01:51:23;30.80;;;18.40;;
18114;SDS011;9184;54.390;18.620;2022-12-07T01:51:56;29.67;;;18.23;;
18114;SDS011;9184;54.390;18.620;2022-12-07T01:52:29;37.77;;;19.10;;
18114;SDS011;9184;54.390;18.620;2022-12-07T01:53:01;34.53;;;19.27;;
18114;SDS011;9184;54.390;18.620;2022-12-07T01:53:33;30.60;;;18.30;;
18114;SDS011;9184;54.390;18.620;2022-12-07T01:54:06;34.63;;;19.97;;
18114;SDS011;9184;54.390;18.620;2022-12-07T01:54:38;31.17;;;18.70;;
18114;SDS011;9184;54.390;18.620;2022-12-07T01:55:10;29.13;;;18.57;;
18114;SDS011;9184;54.390;18.620;2022-12-07T01:55:42;33.83;;;19.17;;
18114;SDS011;9184;54.390;18.620;2022-12-07T01:56:17;36.37;;;19.47;;
18114;SDS011;9184;54.390;18.620;2022-12-07T01:56:50;33.13;;;19.10;;
18114;SDS011;9184;54.390;18.620;2022-12-07T01:57:21;33.07;;;19.13;;
18114;SDS011;9184;54.390;18.620;2022-12-07T01:57:53;29.03;;;17.77;;
18114;SDS011;9184;54.390;18.620;2022-12-07T01:58:24;29.20;;;18.17;;
18114;SDS011;9184;54.390;18.620;2022-12-07T01:58:55;37.70;;;19.30;;
18114;SDS011;9184;54.390;18.620;2022-12-07T01:59:27;32.70;;;18.27;;
18114;SDS011;9184;54.390;18.620;2022-12-07T01:59:58;31.43;;;19.00;;
18114;SDS011;9184;54.390;18.620;2022-12-07T02:00:28;30.60;;;18.83;;
18114;SDS011;9184;54.390;18.620;2022-12-07T02:00:59;31.70;;;18.27;;
18114;SDS011;9184;54.390;18.620;2022-12-07T02:01:30;29.53;;;18.77;;
18114;SDS011;9184;54.390;18.620;2022-12-07T02:02:01;32.70;;;17.87;;
18114;SDS011;9184;54.390;18.620;2022-12-07T02:02:33;27.70;;;17.40;;
18114;SDS011;9184;54.390;18.620;2022-12-07T02:03:06;28.10;;;18.53;;
18114;SDS011;9184;54.390;18.620;2022-12-07T02:03:39;30.07;;;18.90;;
18114;SDS011;9184;54.390;18.620;2022-12-07T02:04:10;29.40;;;17.37;;
18114;SDS011;9184;54.390;18.620;2022-12-07T02:04:42;30.40;;;18.97;;
18114;SDS011;9184;54.390;18.620;2022-12-07T02:05:13;29.83;;;18.40;;
18114;SDS011;9184;54.390;18.620;2022-12-07T02:05:44;31.60;;;18.23;;
18114;SDS011;9184;54.390;18.620;2022-12-07T02:06:16;30.97;;;18.93;;
18114;SDS011;9184;54.390;18.620;2022-12-07T02:06:48;34.30;;;18.90;;
18114;SDS011;9184;54.390;18.620;2022-12-07T02:07:18;34.53;;;18.37;;
18114;SDS011;9184;54.390;18.620;2022-12-07T02:07:50;27.90;;;18.10;;
18114;SDS011;9184;54.390;18.620;2022-12-07T02:08:25;30.50;;;18.67;;
18114;SDS011;9184;54.390;18.620;2022-12-07T02:08:55;28.93;;;17.67;;
18114;SDS011;9184;54.390;18.620;2022-12-07T02:09:27;29.60;;;17.77;;
18114;SDS011;9184;54.390;18.620;2022-12-07T02:10:10;31.37;;;18.40;;
18114;SDS011;9184;54.390;18.620;2022-12-07T02:10:41;30.63;;;17.43;;
18114;SDS011;9184;54.390;18.620;2022-12-07T02:11:13;28.87;;;17.10;;
18114;SDS011;9184;54.390;18.620;2022-12-07T02:11:43;29.73;;;17.73;;
18114;SDS011;9184;54.390;18.620;2022-12-07T02:12:14;30.47;;;17.80;;
18114;SDS011;9184;54.390;18.620;2022-12-07T02:12:46;31.57;;;18.63;;
18114;SDS011;9184;54.390;18.620;2022-12-07T02:13:18;29.33;;;17.47;;
18114;SDS011;9184;54.390;18.620;2022-12-07T02:13:49;31.20;;;18.10;;
18114;SDS011;9184;54.390;18.620;2022-12-07T02:14:21;25.67;;;16.27;;
18114;SDS011;9184;54.390;18.620;2022-12-07T02:14:52;31.80;;;17.83;;
18114;SDS011;9184;54.390;18.620;2022-12-07T02:15:23;31.80;;;17.70;;
18114;SDS011;9184;54.390;18.620;2022-12-07T02:16:03;25.90;;;16.33;;
18114;SDS011;9184;54.390;18.620;2022-12-07T02:16:38;32.73;;;17.87;;
18114;SDS011;9184;54.390;18.620;2022-12-07T02:17:12;29.40;;;16.87;;
18114;SDS011;9184;54.390;18.620;2022-12-07T02:17:46;29.23;;;17.23;;
18114;SDS011;9184;54.390;18.620;2022-12-07T02:18:22;26.97;;;16.97;;
18114;SDS011;9184;54.390;18.620;2022-12-07T02:18:58;29.60;;;17.57;;
18114;SDS011;9184;54.390;18.620;2022-12-07T02:19:49;31.17;;;17.50;;
18114;SDS011;9184;54.390;18.620;2022-12-07T02:20:22;27.93;;;18.17;;
18114;SDS011;9184;54.390;18.620;2022-12-07T02:20:56;33.93;;;17.90;;
18114;SDS011;9184;54.390;18.620;2022-12-07T02:21:31;38.73;;;18.53;;
18114;SDS011;9184;54.390;18.620;2022-12-07T02:22:09;31.63;;;18.13;;
18114;SDS011;9184;54.390;18.620;2022-12-07T02:23:04;33.70;;;18.33;;
18114;SDS011;9184;54.390;18.620;2022-12-07T02:24:41;28.43;;;15.50;;
18114;SDS011;9184;54.390;18.620;2022-12-07T02:25:14;35.27;;;16.77;;
18114;SDS011;9184;54.390;18.620;2022-12-07T02:25:58;29.50;;;17.73;;
18114;SDS011;9184;54.390;18.620;2022-12-07T02:27:24;30.37;;;17.37;;
18114;SDS011;9184;54.390;18.620;2022-12-07T02:28:00;32.63;;;18.03;;
18114;SDS011;9184;54.390;18.620;2022-12-07T02:28:33;30.27;;;17.13;;
18114;SDS011;9184;54.390;18.620;2022-12-07T02:29:14;31.13;;;16.87;;
18114;SDS011;9184;54.390;18.620;2022-12-07T02:29:49;32.90;;;17.23;;
18114;SDS011;9184;54.390;18.620;2022-12-07T02:30:22;29.70;;;17.10;;
18114;SDS011;9184;54.390;18.620;2022-12-07T02:30:54;30.47;;;17.37;;
18114;SDS011;9184;54.390;18.620;2022-12-07T02:31:25;31.80;;;17.30;;
18114;SDS011;9184;54.390;18.620;2022-12-07T02:32:01;29.60;;;17.60;;
18114;SDS011;9184;54.390;18.620;2022-12-07T02:32:36;30.50;;;17.07;;
18114;SDS011;9184;54.390;18.620;2022-12-07T02:33:11;30.53;;;18.23;;
18114;SDS011;9184;54.390;18.620;2022-12-07T02:33:44;27.77;;;16.27;;
18114;SDS011;9184;54.390;18.620;2022-12-07T02:34:19;31.23;;;18.90;;
18114;SDS011;9184;54.390;18.620;2022-12-07T02:34:52;30.87;;;17.20;;
18114;SDS011;9184;54.390;18.620;2022-12-07T02:35:26;33.17;;;17.20;;
18114;SDS011;9184;54.390;18.620;2022-12-07T02:35:59;27.67;;;16.97;;
18114;SDS011;9184;54.390;18.620;2022-12-07T02:36:34;29.77;;;16.50;;
18114;SDS011;9184;54.390;18.620;2022-12-07T02:37:09;28.53;;;16.60;;
18114;SDS011;9184;54.390;18.620;2022-12-07T02:37:46;25.17;;;15.70;;
18114;SDS011;9184;54.390;18.620;2022-12-07T02:38:20;32.07;;;16.33;;
18114;SDS011;9184;54.390;18.620;2022-12-07T02:38:58;26.67;;;16.57;;
18114;SDS011;9184;54.390;18.620;2022-12-07T02:39:31;30.07;;;17.40;;
18114;SDS011;9184;54.390;18.620;2022-12-07T02:40:05;26.77;;;16.00;;
18114;SDS011;9184;54.390;18.620;2022-12-07T02:40:39;26.53;;;17.37;;
18114;SDS011;9184;54.390;18.620;2022-12-07T02:41:12;30.67;;;16.73;;
18114;SDS011;9184;54.390;18.620;2022-12-07T02:41:46;27.93;;;16.70;;
18114;SDS011;9184;54.390;18.620;2022-12-07T02:42:19;30.40;;;17.87;;
18114;SDS011;9184;54.390;18.620;2022-12-07T02:42:55;25.33;;;16.33;;
18114;SDS011;9184;54.390;18.620;2022-12-07T02:43:30;26.30;;;16.53;;
18114;SDS011;9184;54.390;18.620;2022-12-07T02:44:04;28.70;;;16.30;;
18114;SDS011;9184;54.390;18.620;2022-12-07T02:44:38;31.23;;;18.07;;
18114;SDS011;9184;54.390;18.620;2022-12-07T02:45:10;29.13;;;15.70;;
18114;SDS011;9184;54.390;18.620;2022-12-07T02:45:41;26.70;;;16.73;;
18114;SDS011;9184;54.390;18.620;2022-12-07T02:46:13;29.07;;;16.53;;
18114;SDS011;9184;54.390;18.620;2022-12-07T02:46:46;30.00;;;17.50;;
18114;SDS011;9184;54.390;18.620;2022-12-07T02:47:20;26.13;;;16.33;;
18114;SDS011;9184;54.390;18.620;2022-12-07T02:47:51;28.90;;;15.80;;
18114;SDS011;9184;54.390;18.620;2022-12-07T02:48:24;29.63;;;17.10;;
18114;SDS011;9184;54.390;18.620;2022-12-07T02:48:56;29.00;;;16.77;;
18114;SDS011;9184;54.390;18.620;2022-12-07T02:49:29;32.67;;;17.70;;
18114;SDS011;9184;54.390;18.620;2022-12-07T02:50:02;27.53;;;16.07;;
18114;SDS011;9184;54.390;18.620;2022-12-07T02:50:33;32.77;;;17.33;;
18114;SDS011;9184;54.390;18.620;2022-12-07T02:51:04;30.67;;;15.97;;
18114;SDS011;9184;54.390;18.620;2022-12-07T02:51:38;24.67;;;16.20;;
18114;SDS011;9184;54.390;18.620;2022-12-07T02:52:09;28.57;;;16.57;;
18114;SDS011;9184;54.390;18.620;2022-12-07T02:52:39;27.67;;;16.43;;
18114;SDS011;9184;54.390;18.620;2022-12-07T02:53:56;28.43;;;16.53;;
18114;SDS011;9184;54.390;18.620;2022-12-07T02:54:26;27.53;;;16.40;;
18114;SDS011;9184;54.390;18.620;2022-12-07T02:54:58;29.27;;;16.87;;
18114;SDS011;9184;54.390;18.620;2022-12-07T02:55:31;31.07;;;17.30;;
18114;SDS011;9184;54.390;18.620;2022-12-07T02:56:05;26.13;;;15.17;;
18114;SDS011;9184;54.390;18.620;2022-12-07T02:56:39;28.70;;;16.93;;
18114;SDS011;9184;54.390;18.620;2022-12-07T02:57:19;21.80;;;14.87;;
18114;SDS011;9184;54.390;18.620;2022-12-07T02:58:05;24.43;;;15.23;;
18114;SDS011;9184;54.390;18.620;2022-12-07T02:58:40;26.83;;;15.20;;
18114;SDS011;9184;54.390;18.620;2022-12-07T02:59:15;21.93;;;14.53;;
18114;SDS011;9184;54.390;18.620;2022-12-07T02:59:51;27.50;;;15.57;;
18114;SDS011;9184;54.390;18.620;2022-12-07T03:00:24;24.70;;;14.93;;
18114;SDS011;9184;54.390;18.620;2022-12-07T03:00:56;22.23;;;14.87;;
18114;SDS011;9184;54.390;18.620;2022-12-07T03:01:30;25.67;;;15.10;;
18114;SDS011;9184;54.390;18.620;2022-12-07T03:02:10;26.03;;;15.27;;
18114;SDS011;9184;54.390;18.620;2022-12-07T03:02:48;23.17;;;14.00;;
18114;SDS011;9184;54.390;18.620;2022-12-07T03:03:20;22.17;;;14.67;;
18114;SDS011;9184;54.390;18.620;2022-12-07T03:03:55;24.60;;;14.60;;
18114;SDS011;9184;54.390;18.620;2022-12-07T03:04:31;22.93;;;13.70;;
18114;SDS011;9184;54.390;18.620;2022-12-07T03:05:07;22.63;;;14.73;;
18114;SDS011;9184;54.390;18.620;2022-12-07T03:05:46;20.67;;;13.17;;
18114;SDS011;9184;54.390;18.620;2022-12-07T03:06:21;19.87;;;13.27;;
18114;SDS011;9184;54.390;18.620;2022-12-07T03:06:53;22.70;;;15.07;;
18114;SDS011;9184;54.390;18.620;2022-12-07T03:07:29;22.30;;;13.80;;
18114;SDS011;9184;54.390;18.620;2022-12-07T03:08:04;21.93;;;14.30;;
18114;SDS011;9184;54.390;18.620;2022-12-07T03:08:38;22.87;;;12.77;;
18114;SDS011;9184;54.390;18.620;2022-12-07T03:09:13;23.23;;;13.70;;
18114;SDS011;9184;54.390;18.620;2022-12-07T03:09:45;19.40;;;12.57;;
18114;SDS011;9184;54.390;18.620;2022-12-07T03:10:20;20.50;;;13.23;;
18114;SDS011;9184;54.390;18.620;2022-12-07T03:10:54;21.87;;;12.63;;
18114;SDS011;9184;54.390;18.620;2022-12-07T03:11:28;21.40;;;13.70;;
18114;SDS011;9184;54.390;18.620;2022-12-07T03:12:01;21.37;;;12.80;;
18114;SDS011;9184;54.390;18.620;2022-12-07T03:12:37;18.13;;;11.93;;
18114;SDS011;9184;54.390;18.620;2022-12-07T03:13:15;21.57;;;13.13;;